createdAt,value
2022-08-19T00:01:02.601Z,68.89
2022-08-19T00:03:33.289Z,69.47
2022-08-19T00:06:00.244Z,69.09
2022-08-19T00:08:26.893Z,70.45
2022-08-19T00:10:54.521Z,69.18
2022-08-19T00:13:21.629Z,70.54
2022-08-19T00:15:48.601Z,70.53
2022-08-19T00:18:19.301Z,69.43
2022-08-19T00:23:26.576Z,66.35
2022-08-19T00:25:54.025Z,65.08
2022-08-19T00:28:20.775Z,63.43
2022-08-19T00:30:47.534Z,65.36
2022-08-19T00:33:14.367Z,65.13
2022-08-19T00:35:41.235Z,65.13
2022-08-19T00:38:08.110Z,65.44
2022-08-19T00:40:35.004Z,63.98
2022-08-19T00:43:01.908Z,62.99
2022-08-19T00:45:31.677Z,62.17
2022-08-19T00:48:01.634Z,60.84
2022-08-19T00:50:28.176Z,61.88
2022-08-19T00:52:56.758Z,63.92
2022-08-19T00:55:23.335Z,66.19
2022-08-19T00:57:52.327Z,67.67
2022-08-19T01:00:19.088Z,69.37
2022-08-19T01:02:48.803Z,70.20
2022-08-19T01:05:16.127Z,70.08
2022-08-19T01:07:42.883Z,70.30
2022-08-19T01:10:12.835Z,69.70
2022-08-19T01:12:41.205Z,69.85
2022-08-19T01:15:08.088Z,68.52
2022-08-19T01:17:36.518Z,66.21
2022-08-19T01:20:05.540Z,66.62
2022-08-19T01:22:33.820Z,67.24
2022-08-19T01:25:00.774Z,68.93
2022-08-19T01:27:29.579Z,69.86
2022-08-19T01:30:01.990Z,69.82
2022-08-19T01:32:33.361Z,68.76
2022-08-19T01:35:01.768Z,69.00
2022-08-19T01:37:28.585Z,66.15
2022-08-19T01:39:57.706Z,66.73
2022-08-19T01:42:30.071Z,66.82
2022-08-19T01:44:59.121Z,64.73
2022-08-19T01:47:25.939Z,63.67
2022-08-19T01:49:59.358Z,63.18
2022-08-19T01:52:26.762Z,62.42
2022-08-19T01:54:53.532Z,61.23
2022-08-19T01:57:20.934Z,60.30
2022-08-19T01:59:50.515Z,58.53
2022-08-19T02:02:17.441Z,58.64
2022-08-19T02:04:44.276Z,59.03
2022-08-19T02:07:11.285Z,59.53
2022-08-19T02:09:39.674Z,59.79
2022-08-19T02:12:07.186Z,59.39
2022-08-19T02:14:34.624Z,59.79
2022-08-19T02:17:03.805Z,59.07
2022-08-19T02:19:31.259Z,59.21
2022-08-19T02:21:57.900Z,59.15
2022-08-19T02:24:25.164Z,58.45
2022-08-19T02:26:55.003Z,58.40
2022-08-19T02:29:23.957Z,58.34
2022-08-19T02:31:50.843Z,58.25
2022-08-19T02:34:17.588Z,57.91
2022-08-19T02:36:44.547Z,57.54
2022-08-19T02:39:18.423Z,56.83
2022-08-19T02:41:44.997Z,57.44
2022-08-19T02:44:26.668Z,57.38
2022-08-19T02:46:57.609Z,58.35
2022-08-19T02:49:24.449Z,59.00
2022-08-19T02:51:55.053Z,59.78
2022-08-19T02:54:21.818Z,60.93
2022-08-19T02:56:49.464Z,60.98
2022-08-19T02:59:16.259Z,59.69
2022-08-19T03:01:43.119Z,60.12
2022-08-19T03:04:09.993Z,59.18
2022-08-19T03:06:36.791Z,61.65
2022-08-19T03:09:03.629Z,62.60
2022-08-19T03:11:35.089Z,61.07
2022-08-19T03:17:17.616Z,62.63
2022-08-19T03:19:44.482Z,63.34
2022-08-19T03:22:11.328Z,61.19
2022-08-19T03:24:39.931Z,59.75
2022-08-19T03:27:06.523Z,60.23
2022-08-19T03:32:04.563Z,61.31
2022-08-19T03:34:31.723Z,60.79
2022-08-19T03:36:58.248Z,62.14
2022-08-19T03:39:30.249Z,61.07
2022-08-19T03:42:38.735Z,61.00
2022-08-19T03:47:15.760Z,61.36
2022-08-19T03:49:42.321Z,62.84
2022-08-19T03:52:09.093Z,64.46
2022-08-19T03:54:35.977Z,63.39
2022-08-19T03:57:04.899Z,63.03
2022-08-19T03:59:32.620Z,64.30
2022-08-19T04:02:00.506Z,64.59
2022-08-19T04:04:29.064Z,66.82
2022-08-19T04:06:56.314Z,65.35
2022-08-19T04:09:23.194Z,64.32
2022-08-19T04:11:50.804Z,64.15
2022-08-19T04:14:37.301Z,61.81
2022-08-19T04:17:03.852Z,61.68
2022-08-19T04:21:59.024Z,60.90
2022-08-19T04:24:25.850Z,60.10
2022-08-19T04:26:52.501Z,59.49
2022-08-19T04:29:19.072Z,62.49
2022-08-19T04:31:48.275Z,61.27
2022-08-19T04:34:15.747Z,61.17
2022-08-19T04:36:42.617Z,60.55
2022-08-19T04:39:09.429Z,60.20
2022-08-19T04:41:35.972Z,58.49
2022-08-19T04:44:04.396Z,58.79
2022-08-19T04:46:39.949Z,58.84
2022-08-19T04:49:13.053Z,58.49
2022-08-19T04:51:40.465Z,57.94
2022-08-19T04:54:07.291Z,58.51
2022-08-19T04:56:34.042Z,58.24
2022-08-19T04:59:00.648Z,57.93
2022-08-19T05:01:27.382Z,57.03
2022-08-19T05:03:53.960Z,58.40
2022-08-19T05:06:20.830Z,58.53
2022-08-19T05:08:48.103Z,59.56
2022-08-19T05:11:15.511Z,59.53
2022-08-19T05:13:42.366Z,59.76
2022-08-19T05:16:09.395Z,61.90
2022-08-19T05:18:36.362Z,61.06
2022-08-19T05:21:02.992Z,62.05
2022-08-19T05:23:31.946Z,63.11
2022-08-19T05:25:58.946Z,62.20
2022-08-19T05:28:27.932Z,61.08
2022-08-19T05:37:16.429Z,63.81
2022-08-19T05:39:51.581Z,63.12
2022-08-19T05:42:24.169Z,62.76
2022-08-19T05:47:50.937Z,61.69
2022-08-19T05:50:22.971Z,62.69
2022-08-19T05:52:53.171Z,62.88
2022-08-19T05:55:20.528Z,62.94
2022-08-19T05:57:50.592Z,62.20
2022-08-19T06:03:25.099Z,62.69
2022-08-19T06:05:52.347Z,61.46
2022-08-19T06:08:20.148Z,62.33
2022-08-19T06:10:47.741Z,63.44
2022-08-19T06:13:17.787Z,65.00
2022-08-19T06:15:44.685Z,64.21
2022-08-19T06:18:11.921Z,65.21
2022-08-19T06:20:54.934Z,64.85
2022-08-19T06:23:24.363Z,64.96
2022-08-19T06:25:53.319Z,66.24
2022-08-19T06:28:21.164Z,66.04
2022-08-19T06:30:48.035Z,64.84
2022-08-19T06:33:22.439Z,65.83
2022-08-19T06:35:49.249Z,65.71
2022-08-19T06:38:16.891Z,64.46
2022-08-19T06:40:46.682Z,66.05
2022-08-19T06:43:18.557Z,64.29
2022-08-19T06:45:47.818Z,63.77
2022-08-19T06:48:15.070Z,64.61
2022-08-19T06:50:42.088Z,63.66
2022-08-19T06:53:08.983Z,62.73
2022-08-19T06:55:38.678Z,62.58
2022-08-19T06:58:07.071Z,62.08
2022-08-19T07:00:34.490Z,61.59
2022-08-19T07:03:06.184Z,62.80
2022-08-19T07:05:35.418Z,61.24
2022-08-19T07:08:06.422Z,60.55
2022-08-19T07:10:35.339Z,60.23
2022-08-19T07:13:02.216Z,60.38
2022-08-19T07:15:28.795Z,61.02
2022-08-19T07:18:00.271Z,60.43
2022-08-19T07:20:28.616Z,61.08
2022-08-19T07:23:00.746Z,61.04
2022-08-19T07:25:35.916Z,59.56
2022-08-19T07:28:02.808Z,59.12
2022-08-19T07:30:29.740Z,59.41
2022-08-19T07:32:58.806Z,59.26
2022-08-19T07:35:26.442Z,58.10
2022-08-19T07:37:57.642Z,57.80
2022-08-19T07:40:24.572Z,57.32
2022-08-19T07:42:53.989Z,56.43
2022-08-19T07:45:21.120Z,58.35
2022-08-19T07:47:51.328Z,57.09
2022-08-19T07:50:20.422Z,56.84
2022-08-19T07:52:48.745Z,56.71
2022-08-19T07:55:40.352Z,57.68
2022-08-19T07:58:05.083Z,57.88
2022-08-19T08:00:31.904Z,57.01
2022-08-19T08:02:58.473Z,57.15
2022-08-19T08:05:25.202Z,57.77
2022-08-19T08:07:51.923Z,57.61
2022-08-19T08:10:21.110Z,57.16
2022-08-19T08:12:49.773Z,58.05
2022-08-19T08:15:39.965Z,58.49
2022-08-19T08:18:08.795Z,58.30
2022-08-19T08:20:36.290Z,57.27
2022-08-19T08:23:03.399Z,57.53
2022-08-19T08:28:39.117Z,56.84
2022-08-19T08:31:09.776Z,56.74
2022-08-19T08:33:36.807Z,58.26
2022-08-19T08:39:02.196Z,58.24
2022-08-19T08:41:28.889Z,57.73
2022-08-19T08:47:05.164Z,55.95
2022-08-19T08:49:35.640Z,55.95
2022-08-19T08:52:03.098Z,54.75
2022-08-19T08:54:30.071Z,52.74
2022-08-19T08:56:57.535Z,54.82
2022-08-19T08:59:24.173Z,54.02
2022-08-19T09:01:53.540Z,55.61
2022-08-19T09:04:20.602Z,54.39
2022-08-19T09:09:58.331Z,53.46
2022-08-19T09:12:28.435Z,53.97
2022-08-19T09:14:55.456Z,53.02
2022-08-19T09:17:22.042Z,52.72
2022-08-19T09:19:49.704Z,53.64
2022-08-19T09:22:25.374Z,53.31
2022-08-19T09:28:22.199Z,57.73
2022-08-19T09:33:33.727Z,56.24
2022-08-19T09:36:03.370Z,55.99
2022-08-19T09:38:43.419Z,56.86
2022-08-19T09:41:11.658Z,57.15
2022-08-19T09:43:44.471Z,56.45
2022-08-19T09:46:18.153Z,56.81
2022-08-19T09:48:50.900Z,57.33
2022-08-19T09:51:19.657Z,55.22
2022-08-19T09:53:49.232Z,54.71
2022-08-19T09:56:19.911Z,54.54
2022-08-19T09:58:47.618Z,55.06
2022-08-19T10:01:15.408Z,54.51
2022-08-19T10:03:43.052Z,54.55
2022-08-19T10:06:15.004Z,53.26
2022-08-19T10:08:50.101Z,53.32
2022-08-19T10:11:28.209Z,53.01
2022-08-19T10:14:05.334Z,52.55
2022-08-19T10:19:14.775Z,51.66
2022-08-19T10:21:53.488Z,50.10
2022-08-19T10:24:26.307Z,49.90
2022-08-19T10:26:58.809Z,50.18
2022-08-19T10:32:34.192Z,52.70
2022-08-19T10:35:01.951Z,52.91
2022-08-19T10:37:42.316Z,53.04
2022-08-19T10:40:29.897Z,51.91
2022-08-19T10:42:58.218Z,52.23
2022-08-19T10:48:00.455Z,51.42
2022-08-19T10:50:31.357Z,49.44
2022-08-19T10:53:10.983Z,50.83
2022-08-19T10:55:40.222Z,50.22
2022-08-19T10:58:08.872Z,50.53
2022-08-19T11:00:40.208Z,50.39
2022-08-19T11:03:07.755Z,51.48
2022-08-19T11:05:40.113Z,50.48
2022-08-19T11:08:23.250Z,49.52
2022-08-19T11:10:50.757Z,50.75
2022-08-19T11:13:18.607Z,48.96
2022-08-19T11:15:46.699Z,49.54
2022-08-19T11:18:25.297Z,49.07
2022-08-19T11:20:55.878Z,48.91
2022-08-19T11:23:27.280Z,49.47
2022-08-19T11:25:54.346Z,49.86
2022-08-19T11:28:28.227Z,49.90
2022-08-19T11:30:56.184Z,49.94
2022-08-19T11:33:28.067Z,49.78
2022-08-19T11:36:00.211Z,50.06
2022-08-19T11:38:34.557Z,48.70
2022-08-19T11:41:05.692Z,49.79
2022-08-19T11:43:37.281Z,49.36
2022-08-19T11:46:06.724Z,48.92
2022-08-19T11:48:35.148Z,48.45
2022-08-19T11:51:05.081Z,48.27
2022-08-19T11:53:32.511Z,48.67
2022-08-19T11:56:00.243Z,49.32
2022-08-19T11:58:28.003Z,49.44
2022-08-19T12:00:55.994Z,50.06
2022-08-19T12:03:23.830Z,49.30
2022-08-19T12:09:00.871Z,48.35
2022-08-19T12:11:28.506Z,49.46
2022-08-19T12:13:59.777Z,50.52
2022-08-19T12:16:28.681Z,49.81
2022-08-19T12:18:56.303Z,50.27
2022-08-19T12:21:23.976Z,49.77
2022-08-19T12:23:55.611Z,49.32
2022-08-19T12:26:23.480Z,48.79
2022-08-19T12:28:50.174Z,47.54
2022-08-19T12:31:18.020Z,47.36
2022-08-19T12:33:45.471Z,46.83
2022-08-19T12:36:13.943Z,46.59
2022-08-19T12:38:41.591Z,46.82
2022-08-19T12:41:09.048Z,47.43
2022-08-19T12:43:37.670Z,47.84
2022-08-19T12:46:06.538Z,47.83
2022-08-19T12:48:47.122Z,47.52
2022-08-19T12:51:19.591Z,46.79
2022-08-19T12:53:46.737Z,46.97
2022-08-19T12:56:14.260Z,46.03
2022-08-19T12:58:48.996Z,47.07
2022-08-19T13:01:27.222Z,48.02
2022-08-19T13:03:54.896Z,48.88
2022-08-19T13:12:48.670Z,46.33
2022-08-19T13:15:23.333Z,47.82
2022-08-19T13:17:56.407Z,47.72
2022-08-19T13:20:24.663Z,46.87
2022-08-19T13:22:52.363Z,47.12
2022-08-19T13:25:23.489Z,47.90
2022-08-19T13:27:50.617Z,49.40
2022-08-19T13:30:23.405Z,49.17
2022-08-19T13:32:51.285Z,47.02
2022-08-19T13:35:20.161Z,45.94
2022-08-19T13:37:49.623Z,45.54
2022-08-19T13:40:23.856Z,46.51
2022-08-19T13:42:50.646Z,47.16
2022-08-19T13:45:18.097Z,46.13
2022-08-19T13:47:45.523Z,45.70
2022-08-19T13:52:52.520Z,45.66
2022-08-19T13:55:22.084Z,45.30
2022-08-19T13:57:51.477Z,47.65
2022-08-19T14:00:18.152Z,46.65
2022-08-19T14:02:44.761Z,45.55
2022-08-19T14:05:11.672Z,45.38
2022-08-19T14:07:38.485Z,45.67
2022-08-19T14:10:05.067Z,46.73
2022-08-19T14:12:31.686Z,47.81
2022-08-19T14:14:58.186Z,48.15
2022-08-19T14:17:24.752Z,47.95
2022-08-19T14:19:51.306Z,47.39
2022-08-19T14:22:22.099Z,47.59
2022-08-19T14:24:49.071Z,47.47
2022-08-19T14:27:15.844Z,47.70
2022-08-19T14:29:42.858Z,46.74
2022-08-19T14:32:15.547Z,47.02
2022-08-19T14:34:44.241Z,45.94
2022-08-19T14:37:14.291Z,44.99
2022-08-19T14:39:41.282Z,45.11
2022-08-19T14:42:11.293Z,44.95
2022-08-19T14:44:38.429Z,44.89
2022-08-19T14:47:07.434Z,45.56
2022-08-19T14:49:42.282Z,46.04
2022-08-19T14:52:11.394Z,46.71
2022-08-19T14:54:38.821Z,47.86
2022-08-19T14:57:05.691Z,47.47
2022-08-19T14:59:36.914Z,47.40
2022-08-19T15:02:33.696Z,47.77
2022-08-19T15:04:58.385Z,48.49
2022-08-19T15:07:29.061Z,48.55
2022-08-19T15:12:51.892Z,50.95
2022-08-19T15:15:21.017Z,50.19
2022-08-19T15:17:50.012Z,50.15
2022-08-19T15:30:05.881Z,52.34
2022-08-19T15:38:55.079Z,53.81
2022-08-19T15:41:22.772Z,53.94
2022-08-19T15:43:49.618Z,53.98
2022-08-19T15:46:19.433Z,53.83
2022-08-19T15:48:46.110Z,54.63
2022-08-19T15:51:22.762Z,54.14
2022-08-19T15:53:49.447Z,53.07
2022-08-19T15:56:18.750Z,53.94
2022-08-19T15:58:47.870Z,54.19
2022-08-19T16:04:02.629Z,56.20
2022-08-19T16:06:33.461Z,54.90
2022-08-19T16:09:01.340Z,53.90
2022-08-19T16:11:29.441Z,53.12
2022-08-19T16:13:59.692Z,52.48
2022-08-19T16:16:27.763Z,53.20
2022-08-19T16:19:01.430Z,56.45
2022-08-19T16:21:31.116Z,59.58
2022-08-19T16:23:59.514Z,60.78
2022-08-19T16:26:27.744Z,61.50
2022-08-19T16:28:56.199Z,60.45
2022-08-19T19:11:17.543Z,58.43
2022-08-19T19:13:44.273Z,57.84
2022-08-19T19:16:10.819Z,58.00
2022-08-19T19:18:37.382Z,58.47
2022-08-19T19:21:06.191Z,59.51
2022-08-19T19:23:34.690Z,58.39
2022-08-19T19:26:02.075Z,57.76
2022-08-19T19:28:29.857Z,56.97
2022-08-19T19:30:57.203Z,57.85
2022-08-19T19:33:25.115Z,58.75
2022-08-19T19:35:51.677Z,57.90
2022-08-19T19:38:18.458Z,56.56
2022-08-19T19:40:45.227Z,55.50
2022-08-19T19:43:17.317Z,55.49
2022-08-19T19:45:46.923Z,56.06
2022-08-19T19:48:13.483Z,55.32
2022-08-19T19:50:43.775Z,56.41
2022-08-19T19:53:12.370Z,57.32
2022-08-19T19:55:42.032Z,57.31
2022-08-19T19:58:08.793Z,58.16
2022-08-19T20:00:35.587Z,56.77
2022-08-19T20:03:02.137Z,56.73
2022-08-19T20:05:28.612Z,55.46
2022-08-19T20:07:55.292Z,55.08
2022-08-19T20:10:22.004Z,56.01
2022-08-19T20:12:51.012Z,57.33
2022-08-19T20:15:17.910Z,57.34
2022-08-19T20:17:44.729Z,56.39
2022-08-19T20:20:11.498Z,55.68
2022-08-19T20:22:38.291Z,56.00
2022-08-19T20:25:07.339Z,56.20
2022-08-19T20:27:40.128Z,55.13
2022-08-19T20:30:07.560Z,55.06
2022-08-19T20:32:40.478Z,55.99
2022-08-19T20:35:07.053Z,54.81
2022-08-19T20:37:34.145Z,53.54
2022-08-19T20:40:04.294Z,52.12
2022-08-19T20:42:35.406Z,51.55
2022-08-19T20:45:01.951Z,51.49
2022-08-19T20:47:31.475Z,55.05
2022-08-19T20:50:00.937Z,53.80
2022-08-19T20:52:28.624Z,51.97
2022-08-19T20:54:55.865Z,51.02
2022-08-19T20:57:28.365Z,51.86
2022-08-19T20:59:55.805Z,50.88
2022-08-19T21:02:39.818Z,52.20
2022-08-19T21:08:15.625Z,53.87
2022-08-19T21:17:22.785Z,52.94
2022-08-19T21:20:03.656Z,53.44
2022-08-19T21:22:52.727Z,54.66
2022-08-19T21:29:51.052Z,53.65
2022-08-19T21:32:41.101Z,51.91
2022-08-19T21:33:58.491Z,52.00
2022-08-19T21:36:25.468Z,51.40
2022-08-19T21:38:52.050Z,51.05
2022-08-19T21:41:18.607Z,50.46
2022-08-19T21:43:45.086Z,52.53
2022-08-19T21:46:11.925Z,53.12
2022-08-19T21:48:38.804Z,53.41
2022-08-19T21:51:05.399Z,52.66
2022-08-19T21:53:34.678Z,52.80
2022-08-19T21:56:01.976Z,51.41
2022-08-19T21:58:30.571Z,52.50
2022-08-19T22:00:57.682Z,52.33
2022-08-19T22:03:25.009Z,52.04
2022-08-19T22:05:52.054Z,55.18
2022-08-19T22:08:18.901Z,56.64
2022-08-19T22:10:45.500Z,57.77
2022-08-19T22:13:16.358Z,57.24
2022-08-19T22:15:42.866Z,55.27
2022-08-19T22:18:16.901Z,54.66
2022-08-19T22:20:43.546Z,52.71
2022-08-19T22:23:12.496Z,52.08
2022-08-19T22:25:39.338Z,52.18
2022-08-19T22:28:06.083Z,51.02
2022-08-19T22:30:33.776Z,49.98
2022-08-19T22:33:00.983Z,50.06
2022-08-19T22:35:27.726Z,50.74
2022-08-19T22:37:54.582Z,52.53
2022-08-19T22:40:21.889Z,51.79
2022-08-19T22:42:48.703Z,55.00
2022-08-19T22:45:15.270Z,54.01
2022-08-19T22:47:42.079Z,52.61
2022-08-19T22:50:08.615Z,52.53
2022-08-19T22:52:42.708Z,51.32
2022-08-19T22:55:21.060Z,51.37
2022-08-19T22:57:47.793Z,51.83
2022-08-19T23:00:14.395Z,50.64
2022-08-19T23:02:51.350Z,51.84
2022-08-19T23:05:22.004Z,52.23
2022-08-19T23:07:52.767Z,52.14
2022-08-19T23:10:26.977Z,51.08
2022-08-19T23:12:54.805Z,51.51
2022-08-19T23:15:22.367Z,53.32
2022-08-19T23:17:49.408Z,52.72
2022-08-19T23:20:16.128Z,53.52
2022-08-19T23:22:43.026Z,53.56
2022-08-19T23:25:09.682Z,53.11
2022-08-19T23:27:36.594Z,53.39
2022-08-19T23:30:03.453Z,55.49
2022-08-19T23:32:29.949Z,56.38
2022-08-19T23:34:56.776Z,55.47
2022-08-19T23:37:23.558Z,54.88
2022-08-19T23:39:50.903Z,54.14
2022-08-19T23:42:17.596Z,56.57
2022-08-19T23:44:52.172Z,55.60
2022-08-19T23:47:19.597Z,54.77
2022-08-19T23:49:46.382Z,53.83
2022-08-19T23:52:13.801Z,54.86
2022-08-19T23:54:43.439Z,57.81
2022-08-19T23:57:13.444Z,58.28
2022-08-19T23:59:43.649Z,56.66
